Flugwetter

[source: ADDS]
METAR
LOWL 210950Z 29009KT 260V330 9999 FEW038 18/09 Q1024 NOSIG =
TAF
TAF LOWL 210515Z 2106/2206 27005KT 9999 FEW060 SCT090 TX21/2113Z TN10/2204Z BECMG 2107/2109 28012KT BECMG 2116/2118 29005KT =